createdAt,value
2018-12-22T00:01:12.535Z,122.60
2018-12-22T00:03:42.682Z,114.30
2018-12-22T00:06:12.821Z,122.47
2018-12-22T00:08:42.899Z,112.17
2018-12-22T00:11:13.017Z,112.92
2018-12-22T00:13:43.160Z,123.35
2018-12-22T00:16:13.428Z,137.55
2018-12-22T00:18:43.577Z,126.58
2018-12-22T00:21:13.780Z,119.10
2018-12-22T00:23:43.970Z,115.05
2018-12-22T00:26:14.130Z,113.12
2018-12-22T00:28:44.284Z,121.13
2018-12-22T00:31:14.346Z,119.57
2018-12-22T00:33:44.445Z,114.97
2018-12-22T00:36:14.591Z,111.35
2018-12-22T00:38:44.721Z,104.50
2018-12-22T00:41:14.670Z,104.85
2018-12-22T00:43:44.888Z,100.50
2018-12-22T00:46:15.080Z,96.90
2018-12-22T00:48:45.330Z,102.78
2018-12-22T00:51:15.642Z,110.28
2018-12-22T00:53:45.671Z,100.65
2018-12-22T00:56:15.713Z,102.17
2018-12-22T00:58:46.094Z,97.22
2018-12-22T01:01:16.264Z,94.70
2018-12-22T01:03:46.540Z,87.02
2018-12-22T01:06:16.572Z,96.02
2018-12-22T01:08:46.754Z,100.85
2018-12-22T01:11:16.900Z,102.75
2018-12-22T01:13:47.243Z,91.70
2018-12-22T01:16:17.393Z,93.07
2018-12-22T01:18:47.610Z,89.62
2018-12-22T01:21:17.682Z,84.47
2018-12-22T01:23:48.118Z,93.42
2018-12-22T01:26:18.138Z,88.75
2018-12-22T01:28:48.250Z,88.12
2018-12-22T01:31:18.222Z,82.97
2018-12-22T01:33:48.605Z,77.03
2018-12-22T01:36:18.564Z,78.28
2018-12-22T01:38:48.715Z,76.53
2018-12-22T01:41:18.756Z,82.08
2018-12-22T01:43:49.086Z,82.90
2018-12-22T01:46:19.068Z,83.40
2018-12-22T01:48:49.227Z,79.17
2018-12-22T01:51:19.331Z,81.32
2018-12-22T01:53:49.525Z,85.22
2018-12-22T01:56:19.514Z,94.62
2018-12-22T01:58:49.838Z,93.47
2018-12-22T02:01:19.966Z,85.97
2018-12-22T02:03:50.197Z,79.65
2018-12-22T02:06:20.181Z,72.87
2018-12-22T02:08:50.486Z,76.10
2018-12-22T02:11:20.691Z,78.25
2018-12-22T02:13:50.752Z,71.30
2018-12-22T02:16:20.815Z,81.95
2018-12-22T02:18:50.715Z,73.78
2018-12-22T02:21:20.798Z,71.85
2018-12-22T02:23:50.884Z,62.30
2018-12-22T02:26:21.166Z,67.47
2018-12-22T02:28:56.591Z,67.82
2018-12-22T02:31:23.443Z,71.62
2018-12-22T02:33:53.655Z,69.82
2018-12-22T02:36:24.045Z,67.53
2018-12-22T02:38:54.244Z,63.65
2018-12-22T02:41:24.345Z,65.03
2018-12-22T02:43:54.355Z,60.50
2018-12-22T02:46:24.593Z,66.12
2018-12-22T02:48:54.713Z,72.58
2018-12-22T02:51:24.979Z,85.60
2018-12-22T02:53:56.202Z,71.70
2018-12-22T02:56:26.586Z,75.83
2018-12-22T02:59:05.635Z,83.67
2018-12-22T03:01:28.898Z,85.20
2018-12-22T03:03:59.447Z,74.70
2018-12-22T03:06:29.721Z,83.33
2018-12-22T03:08:59.703Z,77.97
2018-12-22T03:11:30.120Z,100.62
2018-12-22T03:14:00.099Z,107.30
2018-12-22T03:16:30.359Z,109.83
2018-12-22T03:19:00.428Z,105.03
2018-12-22T03:21:30.634Z,106.32
2018-12-22T03:24:00.650Z,108.60
2018-12-22T03:26:31.018Z,105.87
2018-12-22T03:29:01.102Z,104.07
2018-12-22T03:31:31.201Z,111.25
2018-12-22T03:34:01.433Z,100.40
2018-12-22T03:36:31.711Z,104.55
2018-12-22T03:39:01.931Z,104.10
2018-12-22T03:41:32.488Z,104.03
2018-12-22T03:44:02.724Z,106.45
2018-12-22T03:46:32.940Z,98.45
2018-12-22T03:49:03.203Z,104.45
2018-12-22T03:51:33.685Z,93.22
2018-12-22T03:54:03.913Z,100.22
2018-12-22T03:56:34.017Z,104.23
2018-12-22T03:59:04.442Z,99.95
2018-12-22T04:01:34.769Z,97.72
2018-12-22T04:04:05.087Z,91.55
2018-12-22T04:06:35.462Z,112.20
2018-12-22T04:09:09.029Z,90.15
2018-12-22T04:11:39.792Z,93.75
2018-12-22T04:14:09.774Z,95.35
2018-12-22T04:16:40.049Z,92.97
2018-12-22T04:19:10.386Z,84.62
2018-12-22T04:21:40.576Z,88.10
2018-12-22T04:24:10.896Z,86.28
2018-12-22T04:26:41.004Z,88.42
2018-12-22T04:29:11.208Z,88.87
2018-12-22T04:31:41.470Z,89.05
2018-12-22T04:34:11.740Z,95.35
2018-12-22T04:36:42.005Z,93.47
2018-12-22T04:39:12.587Z,87.00
2018-12-22T04:41:42.778Z,88.20
2018-12-22T04:44:13.105Z,93.70
2018-12-22T04:46:43.314Z,89.85
2018-12-22T04:49:13.513Z,88.75
2018-12-22T04:51:43.737Z,96.95
2018-12-22T04:54:13.882Z,91.97
2018-12-22T04:56:43.882Z,92.17
2018-12-22T04:59:14.337Z,88.22
2018-12-22T05:01:44.779Z,83.20
2018-12-22T05:04:15.165Z,89.75
2018-12-22T05:06:45.184Z,90.50
2018-12-22T05:09:15.516Z,79.77
2018-12-22T05:11:46.036Z,105.07
2018-12-22T05:14:16.025Z,86.05
2018-12-22T05:16:45.993Z,96.63
2018-12-22T05:19:16.320Z,81.53
2018-12-22T05:21:46.560Z,114.28
2018-12-22T05:24:16.624Z,113.50
2018-12-22T05:26:46.922Z,105.58
2018-12-22T05:29:17.262Z,93.82
2018-12-22T05:31:47.502Z,92.92
2018-12-22T05:34:17.731Z,130.95
2018-12-22T05:36:47.788Z,87.42
2018-12-22T05:39:17.937Z,74.12
2018-12-22T05:41:48.191Z,84.35
2018-12-22T05:44:18.572Z,81.67
2018-12-22T05:46:48.628Z,80.92
2018-12-22T05:49:18.958Z,81.45
2018-12-22T05:51:49.145Z,95.07
2018-12-22T05:54:19.243Z,81.65
2018-12-22T05:56:49.421Z,81.60
2018-12-22T05:59:19.825Z,84.30
2018-12-22T06:01:49.899Z,85.15
2018-12-22T06:04:20.092Z,92.92
2018-12-22T06:06:50.359Z,94.55
2018-12-22T06:09:20.617Z,91.22
2018-12-22T06:11:51.327Z,93.20
2018-12-22T06:14:22.035Z,134.75
2018-12-22T06:16:52.402Z,111.65
2018-12-22T06:19:22.747Z,108.12
2018-12-22T06:21:53.394Z,102.87
2018-12-22T06:24:23.576Z,97.00
2018-12-22T06:26:53.891Z,115.77
2018-12-22T06:29:24.313Z,105.85
2018-12-22T06:31:54.463Z,103.17
2018-12-22T06:34:24.918Z,98.42
2018-12-22T06:36:55.011Z,102.50
2018-12-22T06:39:25.252Z,105.72
2018-12-22T06:41:55.378Z,92.78
2018-12-22T06:44:25.570Z,87.70
2018-12-22T06:46:55.710Z,69.92
2018-12-22T06:49:26.333Z,78.78
2018-12-22T06:51:56.419Z,67.87
2018-12-22T06:54:26.749Z,63.15
2018-12-22T06:56:57.365Z,84.13
2018-12-22T06:59:28.102Z,110.68
2018-12-22T07:01:58.280Z,110.42
2018-12-22T07:04:28.976Z,112.95
2018-12-22T07:06:59.143Z,109.05
2018-12-22T07:09:29.435Z,110.85
2018-12-22T07:12:00.387Z,120.95
2018-12-22T07:14:30.900Z,116.35
2018-12-22T07:17:01.122Z,100.73
2018-12-22T07:19:31.645Z,115.80
2018-12-22T07:22:02.307Z,109.65
2018-12-22T07:24:32.509Z,149.47
2018-12-22T07:27:02.848Z,137.73
2018-12-22T07:29:33.228Z,152.47
2018-12-22T07:32:03.719Z,151.10
2018-12-22T07:34:33.800Z,138.57
2018-12-22T07:37:04.026Z,119.63
2018-12-22T07:39:34.466Z,172.50
2018-12-22T07:42:04.679Z,148.50
2018-12-22T07:44:34.740Z,118.73
2018-12-22T07:47:04.931Z,133.63
2018-12-22T07:49:35.169Z,123.17
2018-12-22T07:52:05.351Z,123.93
2018-12-22T07:54:35.762Z,127.27
2018-12-22T07:57:06.016Z,138.50
2018-12-22T07:59:36.331Z,115.37
2018-12-22T08:02:06.396Z,130.47
2018-12-22T08:04:36.632Z,120.37
2018-12-22T08:07:06.842Z,106.57
2018-12-22T08:09:37.277Z,102.27
2018-12-22T08:12:07.666Z,108.30
2018-12-22T08:14:38.163Z,98.03
2018-12-22T08:17:08.340Z,116.13
2018-12-22T08:19:38.784Z,112.00
2018-12-22T08:22:09.077Z,112.60
2018-12-22T08:24:39.235Z,102.80
2018-12-22T08:27:09.514Z,111.20
2018-12-22T08:29:39.943Z,95.77
2018-12-22T08:32:10.603Z,101.77
2018-12-22T08:34:40.780Z,108.33
2018-12-22T08:37:10.940Z,116.67
2018-12-22T08:39:41.205Z,110.87
2018-12-22T08:42:11.810Z,110.13
2018-12-22T08:44:42.926Z,122.43
2018-12-22T08:47:13.530Z,130.83
2018-12-22T08:49:44.239Z,97.17
2018-12-22T08:52:16.675Z,103.17
2018-12-22T08:54:47.737Z,98.83
2018-12-22T08:57:18.262Z,103.30
2018-12-22T08:59:48.554Z,120.90
2018-12-22T09:02:18.741Z,109.20
2018-12-22T09:04:49.031Z,93.50
2018-12-22T09:07:19.424Z,96.90
2018-12-22T09:09:49.748Z,92.90
2018-12-22T09:12:19.984Z,103.03
2018-12-22T09:14:50.053Z,96.97
2018-12-22T09:17:20.723Z,92.90
2018-12-22T09:19:51.153Z,100.17
2018-12-22T09:22:22.573Z,88.70
2018-12-22T09:24:53.223Z,81.67
2018-12-22T09:27:23.605Z,90.03
2018-12-22T09:29:53.940Z,87.17
2018-12-22T09:32:24.184Z,87.20
2018-12-22T09:34:54.828Z,86.57
2018-12-22T09:37:25.014Z,77.80
2018-12-22T09:39:55.125Z,77.97
2018-12-22T09:42:25.298Z,79.00
2018-12-22T09:44:55.663Z,81.33
2018-12-22T09:47:26.103Z,98.57
2018-12-22T09:49:56.802Z,79.33
2018-12-22T09:52:27.194Z,89.07
2018-12-22T09:54:57.495Z,78.30
2018-12-22T09:57:27.862Z,81.57
2018-12-22T09:59:58.106Z,83.77
2018-12-22T10:02:28.346Z,82.13
2018-12-22T10:04:58.581Z,75.00
2018-12-22T10:07:29.079Z,73.77
2018-12-22T10:09:59.206Z,96.60
2018-12-22T10:12:29.310Z,85.30
2018-12-22T10:14:59.413Z,83.63
2018-12-22T10:17:29.820Z,82.10
2018-12-22T10:20:00.179Z,80.83
2018-12-22T10:22:30.500Z,91.93
2018-12-22T10:25:00.945Z,80.37
2018-12-22T10:27:31.216Z,74.97
2018-12-22T10:30:01.803Z,120.27
2018-12-22T10:32:33.108Z,129.93
2018-12-22T10:35:03.459Z,128.23
2018-12-22T10:37:33.850Z,132.70
2018-12-22T10:40:04.572Z,141.57
2018-12-22T10:42:34.899Z,121.57
2018-12-22T10:45:05.582Z,138.50
2018-12-22T10:47:35.991Z,130.80
2018-12-22T10:50:06.257Z,136.60
2018-12-22T10:52:37.786Z,133.23
2018-12-22T10:55:09.329Z,124.70
2018-12-22T10:57:40.496Z,129.77
2018-12-22T11:00:14.140Z,155.23
2018-12-22T11:02:44.533Z,141.40
2018-12-22T11:05:16.471Z,144.93
2018-12-22T11:07:47.234Z,141.97
2018-12-22T11:10:22.689Z,160.40
2018-12-22T11:12:55.328Z,156.90
2018-12-22T11:15:25.826Z,158.80
2018-12-22T11:17:55.953Z,150.33
2018-12-22T11:20:26.235Z,462.63
2018-12-22T11:22:56.814Z,141.37
2018-12-22T11:25:27.960Z,147.73
2018-12-22T11:27:58.760Z,158.20
2018-12-22T11:30:40.224Z,147.20
2018-12-22T11:33:10.555Z,149.37
2018-12-22T11:35:41.084Z,143.60
2018-12-22T11:38:11.699Z,137.63
2018-12-22T11:40:42.211Z,139.03
2018-12-22T11:43:12.579Z,155.07
2018-12-22T11:45:43.439Z,144.20
2018-12-22T11:48:39.323Z,154.50
2018-12-22T11:51:09.686Z,146.20
2018-12-22T11:53:40.110Z,146.73
2018-12-22T11:56:10.677Z,162.93
2018-12-22T11:58:41.175Z,166.13
2018-12-22T12:01:11.995Z,163.33
2018-12-22T12:03:42.556Z,156.23
2018-12-22T12:06:12.821Z,158.97
2018-12-22T12:08:44.165Z,163.40
2018-12-22T12:11:14.713Z,175.53
2018-12-22T12:13:44.967Z,147.63
2018-12-22T12:16:35.287Z,167.07
2018-12-22T12:19:23.585Z,180.20
2018-12-22T12:21:53.986Z,135.10
2018-12-22T12:24:24.437Z,105.90
2018-12-22T12:26:54.888Z,96.43
2018-12-22T12:29:25.224Z,95.80
2018-12-22T12:31:55.660Z,94.90
2018-12-22T12:34:25.985Z,108.17
2018-12-22T12:36:56.256Z,121.10
2018-12-22T12:39:26.619Z,93.13
2018-12-22T12:41:57.148Z,98.63
2018-12-22T12:44:27.690Z,94.03
2018-12-22T12:46:58.186Z,92.10
2018-12-22T12:49:28.529Z,88.97
2018-12-22T12:51:58.877Z,89.20
2018-12-22T12:54:29.208Z,111.13
2018-12-22T12:57:00.700Z,94.20
2018-12-22T12:59:33.229Z,94.63
2018-12-22T13:02:05.328Z,91.03
2018-12-22T13:04:35.649Z,96.23
2018-12-22T13:07:06.155Z,91.57
2018-12-22T13:09:36.529Z,111.80
2018-12-22T13:12:14.865Z,96.27
2018-12-22T13:14:47.243Z,93.83
2018-12-22T13:17:18.970Z,97.50
2018-12-22T13:19:49.479Z,90.47
2018-12-22T13:22:19.878Z,112.37
2018-12-22T13:24:50.485Z,108.90
2018-12-22T13:27:21.053Z,105.03
2018-12-22T13:29:51.312Z,101.47
2018-12-22T13:32:21.622Z,109.30
2018-12-22T13:34:51.934Z,98.33
2018-12-22T13:37:22.368Z,106.50
2018-12-22T13:39:53.108Z,107.83
2018-12-22T13:42:23.846Z,95.40
2018-12-22T13:44:54.764Z,100.60
2018-12-22T13:47:25.166Z,108.23
2018-12-22T13:49:55.851Z,100.40
2018-12-22T13:52:27.401Z,128.13
2018-12-22T13:54:58.025Z,119.80
2018-12-22T13:57:28.430Z,119.83
2018-12-22T13:59:58.862Z,103.53
2018-12-22T14:02:29.388Z,118.67
2018-12-22T14:04:59.665Z,107.27
2018-12-22T14:07:30.125Z,111.40
2018-12-22T14:10:00.602Z,110.20
2018-12-22T14:12:31.044Z,124.10
2018-12-22T14:15:01.424Z,112.37
2018-12-22T14:17:37.348Z,99.33
2018-12-22T14:20:13.782Z,104.70
2018-12-22T14:22:44.890Z,115.97
2018-12-22T14:25:24.386Z,116.73
2018-12-22T14:27:54.936Z,115.87
2018-12-22T14:30:25.404Z,121.20
2018-12-22T14:32:56.139Z,116.70
2018-12-22T14:35:34.942Z,122.85
2018-12-22T14:38:05.532Z,116.05
2018-12-22T14:40:36.333Z,133.52
2018-12-22T14:43:07.154Z,210.08
2018-12-22T14:45:38.571Z,115.52
2018-12-22T14:48:09.032Z,120.28
2018-12-22T14:50:39.491Z,113.97
2018-12-22T14:53:10.020Z,142.15
2018-12-22T14:55:40.747Z,136.35
2018-12-22T14:58:17.889Z,136.68
2018-12-22T15:00:48.628Z,143.02
2018-12-22T15:03:18.800Z,143.62
2018-12-22T15:05:49.230Z,135.07
2018-12-22T15:08:19.755Z,134.40
2018-12-22T15:10:50.370Z,125.78
2018-12-22T15:13:20.668Z,128.72
2018-12-22T15:15:51.186Z,124.00
2018-12-22T15:18:21.466Z,141.85
2018-12-22T15:20:52.154Z,163.18
2018-12-22T15:23:22.573Z,150.57
2018-12-22T15:25:53.133Z,125.97
2018-12-22T15:28:23.413Z,129.23
2018-12-22T15:30:53.930Z,125.62
2018-12-22T15:33:24.365Z,112.15
2018-12-22T15:35:54.822Z,98.90
2018-12-22T15:38:25.317Z,125.15
2018-12-22T15:40:55.877Z,123.70
2018-12-22T15:43:26.474Z,126.42
2018-12-22T15:45:57.147Z,118.65
2018-12-22T15:48:27.700Z,135.37
2018-12-22T15:50:58.151Z,144.85
2018-12-22T15:53:28.575Z,135.05
2018-12-22T15:55:59.413Z,121.15
2018-12-22T15:58:31.026Z,128.75
2018-12-22T16:01:01.384Z,137.77
2018-12-22T16:03:31.743Z,131.47
2018-12-22T16:06:02.484Z,140.55
2018-12-22T16:08:32.903Z,142.50
2018-12-22T16:11:03.704Z,141.62
2018-12-22T16:13:34.372Z,146.35
2018-12-22T16:16:04.803Z,154.23
2018-12-22T16:18:35.261Z,150.68
2018-12-22T16:21:05.672Z,143.75
2018-12-22T16:23:36.031Z,155.37
2018-12-22T16:26:06.512Z,145.43
2018-12-22T16:28:42.004Z,143.62
2018-12-22T16:31:12.647Z,151.22
2018-12-22T16:33:43.026Z,160.63
2018-12-22T16:36:13.425Z,153.87
2018-12-22T16:38:43.761Z,152.75
2018-12-22T16:41:14.036Z,148.65
2018-12-22T16:43:44.820Z,155.05
2018-12-22T16:46:15.109Z,156.28
2018-12-22T16:48:47.334Z,152.53
2018-12-22T16:51:17.713Z,142.20
2018-12-22T16:53:48.574Z,152.15
2018-12-22T16:56:19.009Z,144.50
2018-12-22T16:58:51.118Z,152.72
2018-12-22T17:01:35.848Z,144.97
2018-12-22T17:04:06.363Z,159.20
2018-12-22T17:06:38.129Z,154.07
2018-12-22T17:09:11.012Z,154.97
2018-12-22T17:11:41.712Z,160.82
2018-12-22T17:14:12.989Z,155.45
2018-12-22T17:16:46.666Z,150.62
2018-12-22T17:19:17.434Z,142.60
2018-12-22T17:22:04.447Z,155.90
2018-12-22T17:25:20.520Z,143.50
2018-12-22T17:27:50.978Z,135.97
2018-12-22T17:30:21.296Z,133.32
2018-12-22T17:32:51.587Z,135.52
2018-12-22T17:35:22.009Z,156.30
2018-12-22T17:37:53.518Z,140.55
2018-12-22T17:40:24.078Z,141.90
2018-12-22T17:42:54.763Z,141.10
2018-12-22T17:45:25.187Z,145.20
2018-12-22T17:47:55.772Z,131.97
2018-12-22T17:53:01.241Z,129.63
2018-12-22T17:55:31.748Z,139.77
2018-12-22T17:58:02.374Z,127.70
2018-12-22T18:00:32.879Z,128.62
2018-12-22T18:03:03.790Z,139.55
2018-12-22T18:05:34.648Z,132.75
2018-12-22T18:08:05.255Z,135.03
2018-12-22T18:10:36.007Z,142.32
2018-12-22T18:13:06.639Z,129.93
2018-12-22T18:15:37.003Z,132.90
2018-12-22T18:18:07.375Z,128.32
2018-12-22T18:20:37.810Z,147.90
2018-12-22T18:23:08.555Z,139.88
2018-12-22T18:25:39.085Z,148.45
2018-12-22T18:28:09.716Z,143.07
2018-12-22T18:30:40.121Z,134.57
2018-12-22T18:33:10.905Z,136.72
2018-12-22T18:35:42.844Z,135.68
2018-12-22T18:38:13.356Z,140.47
2018-12-22T18:40:43.803Z,132.82
2018-12-22T18:43:14.133Z,135.80
2018-12-22T18:45:44.748Z,127.62
2018-12-22T18:48:15.120Z,130.52
2018-12-22T18:50:46.102Z,149.50
2018-12-22T18:53:16.523Z,142.07
2018-12-22T18:55:47.111Z,143.87
2018-12-22T18:58:17.546Z,148.50
2018-12-22T19:00:48.069Z,133.55
2018-12-22T19:03:18.741Z,135.75
2018-12-22T19:05:49.280Z,139.05
2018-12-22T19:08:20.429Z,126.47
2018-12-22T19:10:55.580Z,131.72
2018-12-22T19:13:25.935Z,132.97
2018-12-22T19:15:56.427Z,134.32
2018-12-22T19:18:26.809Z,133.12
2018-12-22T19:21:03.641Z,129.25
2018-12-22T19:23:33.997Z,136.25
2018-12-22T19:26:04.607Z,131.60
2018-12-22T19:28:35.253Z,139.92
2018-12-22T19:31:06.134Z,136.30
2018-12-22T19:33:36.587Z,139.12
2018-12-22T19:36:07.279Z,133.05
2018-12-22T19:38:38.107Z,129.65
2018-12-22T19:41:08.630Z,136.12
2018-12-22T19:43:39.068Z,127.00
2018-12-22T19:46:09.336Z,133.00
2018-12-22T19:48:39.758Z,133.52
2018-12-22T19:51:10.373Z,133.18
2018-12-22T19:53:42.286Z,133.40
2018-12-22T19:56:12.992Z,136.03
2018-12-22T19:58:43.532Z,140.47
2018-12-22T20:01:14.263Z,134.72
2018-12-22T20:03:46.031Z,162.07
2018-12-22T20:06:16.831Z,165.80
2018-12-22T20:08:47.458Z,181.15
2018-12-22T20:11:18.176Z,165.68
2018-12-22T20:13:48.736Z,160.30
2018-12-22T20:16:19.159Z,181.50
2018-12-22T20:18:49.911Z,164.13
2018-12-22T20:21:20.467Z,153.30
2018-12-22T20:26:25.979Z,135.70
2018-12-22T20:28:56.619Z,162.97
2018-12-22T20:31:27.193Z,148.05
2018-12-22T20:33:58.004Z,162.47
2018-12-22T20:36:28.449Z,137.03
2018-12-22T20:38:59.026Z,134.22
2018-12-22T20:41:29.619Z,135.45
2018-12-22T20:43:59.815Z,132.65
2018-12-22T20:46:30.326Z,137.57
2018-12-22T20:49:01.758Z,135.90
2018-12-22T20:51:32.200Z,148.05
2018-12-22T20:56:36.897Z,147.90
2018-12-22T20:59:07.542Z,157.85
2018-12-22T21:01:37.840Z,146.68
2018-12-22T21:04:08.519Z,149.65
2018-12-22T21:06:38.849Z,150.32
2018-12-22T21:09:09.741Z,142.43
2018-12-22T21:11:40.260Z,166.18
2018-12-22T21:14:12.846Z,147.65
2018-12-22T21:16:43.303Z,150.22
2018-12-22T21:19:13.969Z,143.57
2018-12-22T21:21:44.406Z,150.27
2018-12-22T21:24:14.822Z,148.40
2018-12-22T21:26:45.345Z,142.20
2018-12-22T21:29:17.059Z,136.37
2018-12-22T21:31:47.316Z,141.97
2018-12-22T21:34:17.763Z,133.52
2018-12-22T21:36:48.305Z,230.75
2018-12-22T21:39:18.502Z,205.77
2018-12-22T21:41:48.908Z,185.28
2018-12-22T21:44:19.118Z,164.75
2018-12-22T21:46:49.725Z,154.30
2018-12-22T21:49:20.216Z,140.05
2018-12-22T21:51:50.552Z,132.18
2018-12-22T21:54:20.891Z,132.78
2018-12-22T21:56:51.107Z,131.95
2018-12-22T21:59:21.559Z,141.03
2018-12-22T22:01:52.026Z,120.33
2018-12-22T22:04:22.323Z,128.80
2018-12-22T22:06:54.608Z,121.40
2018-12-22T22:09:25.270Z,123.55
2018-12-22T22:11:56.086Z,121.57
2018-12-22T22:14:26.554Z,127.78
2018-12-22T22:16:56.914Z,124.47
2018-12-22T22:19:27.271Z,131.35
2018-12-22T22:21:57.880Z,123.13
2018-12-22T22:24:28.677Z,133.82
2018-12-22T22:26:59.026Z,135.28
2018-12-22T22:29:29.384Z,128.82
2018-12-22T22:31:59.706Z,125.18
2018-12-22T22:34:30.089Z,140.30
2018-12-22T22:37:00.755Z,140.55
2018-12-22T22:39:31.092Z,141.43
2018-12-22T22:42:01.833Z,136.52
2018-12-22T22:44:32.659Z,133.52
2018-12-22T22:47:02.950Z,141.55
2018-12-22T22:49:33.039Z,133.10
2018-12-22T22:52:03.349Z,139.35
2018-12-22T22:54:33.725Z,139.25
2018-12-22T22:57:04.071Z,131.15
2018-12-22T22:59:34.464Z,137.55
2018-12-22T23:02:04.993Z,138.57
2018-12-22T23:04:35.268Z,135.57
2018-12-22T23:07:05.578Z,133.20
2018-12-22T23:09:36.096Z,130.63
2018-12-22T23:12:06.332Z,122.67
2018-12-22T23:14:36.645Z,122.53
2018-12-22T23:17:09.064Z,126.95
2018-12-22T23:19:39.457Z,144.65
2018-12-22T23:22:10.071Z,135.32
2018-12-22T23:24:40.535Z,142.45
2018-12-22T23:27:11.094Z,155.50
2018-12-22T23:29:41.213Z,142.28
2018-12-22T23:32:11.541Z,157.95
2018-12-22T23:34:42.063Z,157.80
2018-12-22T23:37:14.039Z,148.55
2018-12-22T23:39:44.214Z,157.97
2018-12-22T23:42:14.507Z,145.72
2018-12-22T23:44:44.900Z,147.90
2018-12-22T23:47:15.237Z,134.47
2018-12-22T23:49:45.628Z,142.62
2018-12-22T23:52:15.704Z,136.20
2018-12-22T23:54:46.248Z,143.40
2018-12-22T23:57:16.478Z,126.35
2018-12-22T23:59:46.870Z,139.10
